createdAt,value
2022-10-05T00:01:35.573Z,69.80
2022-10-05T00:04:18.844Z,69.89
2022-10-05T00:07:05.565Z,70.07
2022-10-05T00:09:37.894Z,70.05
2022-10-05T00:12:18.033Z,70.01
2022-10-05T00:14:53.494Z,70.04
2022-10-05T00:17:27.903Z,70.14
2022-10-05T00:19:59.983Z,69.98
2022-10-05T00:22:34.854Z,69.72
2022-10-05T00:25:09.763Z,69.56
2022-10-05T00:27:42.183Z,69.62
2022-10-05T00:30:20.025Z,69.67
2022-10-05T00:32:58.641Z,69.75
2022-10-05T00:35:28.935Z,69.97
2022-10-05T00:38:00.909Z,70.16
2022-10-05T00:40:42.072Z,70.40
2022-10-05T00:43:31.771Z,69.75
2022-10-05T00:46:21.453Z,69.73
2022-10-05T00:49:08.327Z,69.76
2022-10-05T00:51:41.985Z,69.70
2022-10-05T00:54:22.657Z,69.70
2022-10-05T00:56:57.501Z,69.66
2022-10-05T00:59:41.200Z,69.78
2022-10-05T01:02:39.496Z,70.15
2022-10-05T01:05:17.112Z,70.16
2022-10-05T01:08:07.102Z,70.16
2022-10-05T01:11:13.423Z,70.26
2022-10-05T01:13:54.077Z,70.13
2022-10-05T01:16:29.280Z,70.10
2022-10-05T01:19:13.014Z,70.23
2022-10-05T01:21:48.041Z,70.62
2022-10-05T01:24:28.803Z,70.60
2022-10-05T01:27:12.562Z,70.90
2022-10-05T01:29:57.893Z,71.42
2022-10-05T01:32:39.212Z,71.79
2022-10-05T01:35:20.261Z,72.44
2022-10-05T01:38:04.083Z,73.06
2022-10-05T01:40:38.998Z,73.48
2022-10-05T01:43:32.957Z,73.78
2022-10-05T01:46:13.888Z,73.87
2022-10-05T01:48:54.910Z,74.01
2022-10-05T01:51:29.801Z,74.00
2022-10-05T01:54:30.846Z,74.19
2022-10-05T01:57:23.407Z,74.88
2022-10-05T02:00:03.903Z,74.70
2022-10-05T02:02:40.459Z,75.17
2022-10-05T02:05:24.384Z,75.54
2022-10-05T02:08:02.086Z,75.68
2022-10-05T02:10:57.822Z,75.58
2022-10-05T02:13:55.467Z,75.62
2022-10-05T02:16:40.081Z,75.79
2022-10-05T02:19:26.731Z,76.16
2022-10-05T02:22:01.624Z,76.38
2022-10-05T02:24:38.093Z,76.92
2022-10-05T02:27:12.840Z,77.42
2022-10-05T02:29:48.180Z,77.69
2022-10-05T02:32:24.765Z,77.74
2022-10-05T02:35:00.364Z,78.01
2022-10-05T02:37:54.201Z,78.42
2022-10-05T02:40:56.619Z,78.64
2022-10-05T02:43:46.308Z,78.46
2022-10-05T02:46:33.088Z,78.14
2022-10-05T02:49:17.012Z,78.33
2022-10-05T02:51:58.195Z,77.66
2022-10-05T02:55:07.383Z,77.91
2022-10-05T02:57:48.791Z,77.86
2022-10-05T03:00:24.478Z,77.63
2022-10-05T03:03:01.877Z,77.74
2022-10-05T03:05:48.651Z,77.98
2022-10-05T03:08:35.977Z,78.37
2022-10-05T03:11:38.244Z,78.28
2022-10-05T03:14:28.631Z,78.27
2022-10-05T03:17:06.570Z,78.14
2022-10-05T03:19:48.116Z,77.75
2022-10-05T03:22:46.950Z,78.36
2022-10-05T03:25:25.167Z,78.82
2022-10-05T03:28:25.558Z,78.60
2022-10-05T03:31:12.880Z,78.79
2022-10-05T03:34:05.753Z,78.34
2022-10-05T03:36:56.178Z,78.01
2022-10-05T03:39:46.353Z,78.28
2022-10-05T03:42:27.450Z,78.95
2022-10-05T03:45:26.638Z,78.95
2022-10-05T03:48:14.101Z,79.19
2022-10-05T03:50:55.097Z,79.53
2022-10-05T03:53:38.607Z,79.57
2022-10-05T03:56:19.786Z,78.96
2022-10-05T03:59:01.385Z,79.27
2022-10-05T04:01:48.776Z,79.23
2022-10-05T04:04:29.625Z,78.96
2022-10-05T04:07:03.079Z,79.47
2022-10-05T04:09:41.102Z,79.46
2022-10-05T04:12:33.372Z,79.66
2022-10-05T04:15:19.007Z,80.16
2022-10-05T04:18:05.965Z,79.82
2022-10-05T04:20:42.226Z,79.63
2022-10-05T04:23:29.039Z,79.56
2022-10-05T04:26:09.633Z,79.46
2022-10-05T04:28:53.717Z,79.32
2022-10-05T04:31:43.839Z,79.97
2022-10-05T04:34:43.923Z,79.89
2022-10-05T04:37:24.830Z,79.71
2022-10-05T04:40:14.596Z,79.22
2022-10-05T04:42:58.282Z,79.62
2022-10-05T04:45:36.301Z,79.52
2022-10-05T04:48:26.105Z,79.52
2022-10-05T04:51:22.201Z,79.29
2022-10-05T04:53:57.112Z,79.39
2022-10-05T04:56:32.622Z,79.36
2022-10-05T04:59:11.254Z,79.23
2022-10-05T05:02:06.862Z,79.01
2022-10-05T05:04:57.217Z,79.37
2022-10-05T05:08:05.300Z,79.67
2022-10-05T05:10:52.121Z,80.22
2022-10-05T05:14:00.070Z,79.71
2022-10-05T05:16:38.684Z,79.56
2022-10-05T05:19:26.297Z,79.22
2022-10-05T05:22:14.408Z,78.97
2022-10-05T05:25:11.351Z,78.65
2022-10-05T05:27:55.432Z,77.87
2022-10-05T05:30:29.611Z,77.00
2022-10-05T05:33:13.519Z,76.27
2022-10-05T05:35:58.049Z,75.92
2022-10-05T05:38:33.835Z,75.81
2022-10-05T05:41:12.409Z,75.36
2022-10-05T05:43:55.106Z,74.44
2022-10-05T05:47:02.213Z,73.86
2022-10-05T05:49:22.960Z,73.89
2022-10-05T05:52:00.852Z,73.56
2022-10-05T05:54:36.523Z,72.73
2022-10-05T05:57:11.654Z,72.95
2022-10-05T05:59:49.870Z,73.70
2022-10-05T06:02:25.138Z,74.14
2022-10-05T06:05:05.599Z,74.18
2022-10-05T06:07:41.267Z,73.12
2022-10-05T06:10:31.708Z,74.76
2022-10-05T06:13:08.186Z,75.18
2022-10-05T06:15:46.036Z,74.63
2022-10-05T06:18:21.263Z,73.61
2022-10-05T06:21:02.813Z,73.37
2022-10-05T06:23:41.050Z,72.28
2022-10-05T06:26:30.801Z,72.69
2022-10-05T06:29:09.383Z,71.03
2022-10-05T06:31:58.530Z,70.79
2022-10-05T06:34:41.779Z,70.57
2022-10-05T06:37:20.331Z,68.73
2022-10-05T06:40:07.476Z,69.80
2022-10-05T06:43:09.627Z,70.40
2022-10-05T06:46:03.051Z,71.19
2022-10-05T06:48:48.576Z,70.24
2022-10-05T06:51:58.091Z,71.43
2022-10-05T06:54:54.365Z,68.95
2022-10-05T06:57:38.064Z,67.79
2022-10-05T07:00:19.592Z,67.68
2022-10-05T07:03:08.267Z,68.32
2022-10-05T07:05:47.847Z,68.26
2022-10-05T07:08:23.935Z,67.15
2022-10-05T07:11:07.740Z,69.00
2022-10-05T07:13:59.156Z,70.06
2022-10-05T07:16:49.184Z,67.51
2022-10-05T07:19:51.018Z,67.29
2022-10-05T07:22:54.626Z,66.74
2022-10-05T07:25:38.640Z,68.07
2022-10-05T07:28:38.148Z,64.01
2022-10-05T07:31:25.074Z,62.30
2022-10-05T07:34:06.095Z,61.22
2022-10-05T07:36:58.152Z,62.12
2022-10-05T07:39:59.610Z,62.80
2022-10-05T07:42:29.173Z,62.92
2022-10-05T07:45:13.333Z,61.39
2022-10-05T07:47:54.694Z,61.55
2022-10-05T07:50:45.499Z,59.75
2022-10-05T07:53:24.177Z,57.48
2022-10-05T07:55:59.624Z,59.67
2022-10-05T07:58:41.605Z,58.95
2022-10-05T08:01:18.357Z,58.25
2022-10-05T08:04:09.630Z,59.00
2022-10-05T08:06:51.264Z,58.82
2022-10-05T08:09:45.855Z,59.01
2022-10-05T08:12:43.046Z,58.35
2022-10-05T08:15:21.226Z,60.27
2022-10-05T08:18:06.004Z,59.63
2022-10-05T08:20:46.693Z,59.69
2022-10-05T08:23:39.407Z,58.49
2022-10-05T08:26:45.980Z,58.88
2022-10-05T08:29:29.972Z,58.00
2022-10-05T08:32:26.017Z,58.06
2022-10-05T08:35:00.836Z,58.65
2022-10-05T08:37:36.763Z,59.68
2022-10-05T08:40:27.946Z,58.33
2022-10-05T08:43:35.126Z,58.74
2022-10-05T08:46:13.742Z,59.36
2022-10-05T08:49:04.824Z,59.26
2022-10-05T08:51:49.065Z,58.93
2022-10-05T08:54:33.265Z,59.88
2022-10-05T08:57:14.366Z,60.04
2022-10-05T09:00:13.622Z,61.12
2022-10-05T09:02:51.907Z,62.61
2022-10-05T09:05:42.064Z,62.71
2022-10-05T09:08:36.375Z,62.91
2022-10-05T09:11:32.461Z,65.62
2022-10-05T09:14:39.136Z,66.53
2022-10-05T09:17:16.820Z,71.14
2022-10-05T09:19:52.045Z,71.46
2022-10-05T09:22:49.426Z,71.65
2022-10-05T09:25:25.110Z,71.13
2022-10-05T09:28:00.404Z,70.46
2022-10-05T09:30:44.646Z,71.53
2022-10-05T09:33:26.248Z,70.31
2022-10-05T09:36:13.139Z,72.17
2022-10-05T09:39:12.184Z,70.54
2022-10-05T09:42:06.527Z,70.54
2022-10-05T09:44:45.717Z,68.64
2022-10-05T09:47:38.448Z,67.41
2022-10-05T09:50:22.972Z,67.75
2022-10-05T09:53:16.038Z,66.07
2022-10-05T09:56:08.880Z,61.15
2022-10-05T09:59:06.539Z,61.30
2022-10-05T10:01:47.976Z,62.83
2022-10-05T10:04:41.257Z,58.38
2022-10-05T10:07:32.714Z,58.38
2022-10-05T10:10:19.950Z,60.94
2022-10-05T10:13:13.051Z,58.82
2022-10-05T10:16:00.523Z,60.80
2022-10-05T10:19:08.792Z,58.46
2022-10-05T10:22:05.069Z,57.14
2022-10-05T10:25:07.179Z,57.76
2022-10-05T10:28:18.544Z,58.63
2022-10-05T10:31:26.231Z,57.04
2022-10-05T10:34:23.305Z,56.58
2022-10-05T10:37:01.187Z,59.22
2022-10-05T10:39:55.704Z,58.08
2022-10-05T10:42:51.955Z,57.81
2022-10-05T10:45:46.032Z,59.19
2022-10-05T10:48:23.871Z,60.45
2022-10-05T10:50:58.995Z,60.37
2022-10-05T10:53:34.308Z,60.74
2022-10-05T10:56:27.088Z,61.33
2022-10-05T10:59:10.802Z,61.55
2022-10-05T11:01:48.783Z,62.75
2022-10-05T11:04:35.869Z,63.16
2022-10-05T11:07:40.715Z,64.20
2022-10-05T11:10:38.071Z,63.14
2022-10-05T11:13:22.345Z,64.43
2022-10-05T11:16:03.536Z,60.56
2022-10-05T11:18:55.811Z,58.84
2022-10-05T11:21:35.386Z,58.05
2022-10-05T11:24:22.259Z,57.70
2022-10-05T11:27:07.680Z,58.37
2022-10-05T11:30:10.779Z,57.46
2022-10-05T11:33:03.483Z,58.33
2022-10-05T11:35:53.702Z,57.13
2022-10-05T11:38:44.377Z,57.66
2022-10-05T11:41:25.114Z,57.79
2022-10-05T11:44:16.196Z,59.23
2022-10-05T11:47:06.142Z,59.36
2022-10-05T11:49:47.138Z,61.79
2022-10-05T11:52:22.171Z,61.83
2022-10-05T11:55:14.927Z,61.79
2022-10-05T11:57:56.278Z,62.95
2022-10-05T12:00:50.327Z,63.98
2022-10-05T12:03:25.359Z,65.00
2022-10-05T12:06:09.488Z,65.15
2022-10-05T12:08:50.406Z,64.98
2022-10-05T12:11:44.992Z,65.56
2022-10-05T12:14:29.448Z,65.20
2022-10-05T12:17:06.984Z,63.27
2022-10-05T12:19:50.995Z,64.32
2022-10-05T12:22:35.148Z,66.00
2022-10-05T12:25:22.029Z,66.78
2022-10-05T12:27:57.063Z,66.35
2022-10-05T12:30:54.967Z,67.63
2022-10-05T12:33:29.963Z,69.16
2022-10-05T12:36:10.879Z,70.96
2022-10-05T12:39:05.409Z,71.98
2022-10-05T12:41:49.313Z,73.26
2022-10-05T12:44:39.911Z,73.05
2022-10-05T12:47:26.546Z,73.85
2022-10-05T12:50:22.585Z,76.78
2022-10-05T12:53:19.937Z,52.05
2022-10-05T12:55:57.733Z,52.05
2022-10-05T12:58:35.748Z,53.88
2022-10-05T13:01:28.723Z,54.14
2022-10-05T13:04:03.766Z,56.43
2022-10-05T13:06:38.752Z,57.40
2022-10-05T13:09:31.737Z,60.94
2022-10-05T13:12:09.950Z,62.10
2022-10-05T13:14:44.930Z,55.02
2022-10-05T13:17:19.922Z,54.25
2022-10-05T13:20:01.655Z,50.31
2022-10-05T13:22:42.960Z,42.60
2022-10-05T13:25:20.989Z,38.13
2022-10-05T13:27:58.798Z,36.17
2022-10-05T13:30:31.549Z,37.11
2022-10-05T13:33:15.210Z,39.13
2022-10-05T13:35:51.142Z,43.28
2022-10-05T13:38:36.366Z,46.41
2022-10-05T13:41:26.401Z,50.27
2022-10-05T13:44:27.989Z,52.83
2022-10-05T13:47:02.838Z,55.38
2022-10-05T13:49:37.787Z,55.38
2022-10-05T13:52:28.926Z,55.71
2022-10-05T13:55:06.744Z,59.24
2022-10-05T13:57:59.600Z,58.64
2022-10-05T14:00:33.236Z,59.23
2022-10-05T14:03:06.810Z,60.13
2022-10-05T14:05:41.670Z,60.59
2022-10-05T14:08:20.941Z,60.37
2022-10-05T14:10:54.494Z,60.22
2022-10-05T14:13:35.510Z,59.75
2022-10-05T14:16:22.255Z,59.29
2022-10-05T14:18:57.400Z,59.29
2022-10-05T14:21:31.828Z,60.85
2022-10-05T14:24:42.398Z,61.02
2022-10-05T14:26:55.828Z,60.10
2022-10-05T14:29:36.891Z,62.35
2022-10-05T14:32:18.946Z,62.89
2022-10-05T14:35:06.263Z,63.33
2022-10-05T14:37:47.457Z,63.56
2022-10-05T14:40:36.911Z,63.35
2022-10-05T14:43:21.110Z,63.27
2022-10-05T14:46:05.647Z,64.40
2022-10-05T14:48:43.504Z,65.30
2022-10-05T14:51:28.628Z,64.27
2022-10-05T14:54:04.285Z,64.81
2022-10-05T14:56:48.201Z,65.43
2022-10-05T14:59:35.803Z,63.35
2022-10-05T15:02:26.919Z,64.41
2022-10-05T15:05:04.826Z,63.56
2022-10-05T15:07:42.612Z,64.45
2022-10-05T15:10:25.179Z,64.07
2022-10-05T15:13:12.682Z,62.56
2022-10-05T15:15:50.483Z,63.06
2022-10-05T15:18:40.165Z,63.48
2022-10-05T15:21:32.372Z,64.16
2022-10-05T15:24:26.631Z,64.52
2022-10-05T15:27:02.153Z,65.96
2022-10-05T15:29:47.311Z,67.31
2022-10-05T15:32:29.868Z,69.41
2022-10-05T15:35:38.090Z,71.97
2022-10-05T15:38:20.695Z,72.51
2022-10-05T15:41:08.586Z,72.83
2022-10-05T15:43:46.782Z,72.27
2022-10-05T15:46:28.914Z,73.80
2022-10-05T15:49:20.931Z,73.63
2022-10-05T15:51:55.934Z,73.71
2022-10-05T15:55:05.322Z,73.85
2022-10-05T15:58:04.868Z,74.97
2022-10-05T16:00:45.877Z,75.86
2022-10-05T16:03:26.469Z,75.31
2022-10-05T16:06:08.903Z,74.74
2022-10-05T16:08:54.214Z,74.89
2022-10-05T16:11:29.400Z,74.05
2022-10-05T16:14:10.543Z,74.05
2022-10-05T16:17:00.659Z,72.89
2022-10-05T16:19:46.586Z,72.42
2022-10-05T16:22:43.472Z,72.18
2022-10-05T16:25:23.674Z,72.24
2022-10-05T16:28:23.004Z,73.16
2022-10-05T16:31:04.134Z,73.79
2022-10-05T16:33:53.625Z,71.96
2022-10-05T16:36:32.032Z,71.87
2022-10-05T16:39:27.949Z,72.50
2022-10-05T16:42:03.206Z,71.68
2022-10-05T16:44:50.039Z,70.66
2022-10-05T16:47:42.902Z,69.72
2022-10-05T16:50:32.960Z,70.09
2022-10-05T16:53:19.988Z,70.63
2022-10-05T16:56:01.416Z,71.01
2022-10-05T16:58:42.494Z,70.21
2022-10-05T17:01:26.325Z,71.10
2022-10-05T17:04:07.108Z,69.93
2022-10-05T17:06:42.476Z,69.46
2022-10-05T17:09:27.360Z,69.73
2022-10-05T17:12:27.164Z,69.09
2022-10-05T17:15:17.050Z,68.91
2022-10-05T17:18:26.742Z,68.99
2022-10-05T17:21:17.200Z,68.52
2022-10-05T17:24:22.033Z,68.95
2022-10-05T17:27:01.307Z,69.85
2022-10-05T17:29:52.397Z,69.40
2022-10-05T17:32:28.309Z,69.63
2022-10-05T17:35:03.295Z,69.59
2022-10-05T17:37:38.433Z,69.26
2022-10-05T17:40:30.296Z,69.35
2022-10-05T17:43:08.021Z,69.31
2022-10-05T17:45:46.298Z,68.80
2022-10-05T17:48:37.346Z,68.60
2022-10-05T17:51:25.255Z,69.73
2022-10-05T17:54:14.967Z,70.22
2022-10-05T17:56:49.857Z,70.00
2022-10-05T17:59:58.792Z,69.84
2022-10-05T18:02:38.760Z,70.12
2022-10-05T18:05:16.567Z,70.57
2022-10-05T18:07:51.035Z,71.15
2022-10-05T18:10:30.999Z,71.40
2022-10-05T18:13:09.614Z,71.71
2022-10-05T18:15:45.315Z,72.36
2022-10-05T18:18:47.373Z,71.78
2022-10-05T18:21:32.840Z,72.39
2022-10-05T18:24:08.104Z,73.11
2022-10-05T18:26:59.733Z,73.32
2022-10-05T18:29:52.400Z,73.60
2022-10-05T18:32:27.607Z,73.12
2022-10-05T18:35:29.490Z,72.97
2022-10-05T18:38:29.824Z,73.21
2022-10-05T18:41:31.934Z,73.72
2022-10-05T18:44:15.988Z,74.31
2022-10-05T18:46:53.698Z,75.28
2022-10-05T18:49:37.242Z,75.22
2022-10-05T18:52:15.004Z,75.73
2022-10-05T18:55:04.851Z,76.07
2022-10-05T18:57:51.819Z,76.37
2022-10-05T19:00:25.614Z,76.71
2022-10-05T19:03:16.842Z,77.10
2022-10-05T19:05:57.725Z,77.08
2022-10-05T19:08:33.263Z,77.22
2022-10-05T19:11:29.063Z,77.09
2022-10-05T19:14:06.928Z,77.22
2022-10-05T19:17:01.036Z,76.98
2022-10-05T19:19:42.776Z,76.35
2022-10-05T19:22:17.805Z,75.68
2022-10-05T19:24:58.484Z,75.29
2022-10-05T19:27:51.793Z,75.14
2022-10-05T19:30:24.246Z,75.08
2022-10-05T19:33:10.794Z,74.29
2022-10-05T19:35:45.671Z,74.25
2022-10-05T19:38:36.597Z,73.86
2022-10-05T19:41:23.741Z,73.51
2022-10-05T19:44:15.567Z,73.37
2022-10-05T19:47:02.565Z,72.83
2022-10-05T19:49:56.536Z,72.99
2022-10-05T19:52:32.614Z,73.57
2022-10-05T19:55:19.236Z,73.11
2022-10-05T19:57:53.809Z,73.42
2022-10-05T20:00:28.615Z,72.94
2022-10-05T20:03:15.307Z,73.44
2022-10-05T20:05:48.264Z,72.88
2022-10-05T20:08:23.045Z,72.67
2022-10-05T20:11:13.155Z,72.91
2022-10-05T20:13:57.014Z,72.75
2022-10-05T20:16:51.501Z,73.49
2022-10-05T20:19:46.621Z,73.34
2022-10-05T20:22:24.499Z,73.30
2022-10-05T20:24:58.525Z,73.03
2022-10-05T20:27:37.561Z,73.67
2022-10-05T20:30:10.896Z,72.76
2022-10-05T20:32:44.629Z,73.24
2022-10-05T20:35:17.185Z,73.80
2022-10-05T20:37:50.098Z,74.54
2022-10-05T20:40:22.107Z,74.74
2022-10-05T20:42:54.116Z,74.97
2022-10-05T20:45:26.206Z,75.25
2022-10-05T20:47:58.168Z,75.62
2022-10-05T20:50:31.820Z,75.88
2022-10-05T20:53:06.317Z,75.83
2022-10-05T20:55:37.410Z,76.18
2022-10-05T20:58:11.153Z,76.39
2022-10-05T21:01:00.950Z,76.59
2022-10-05T21:03:33.060Z,76.94
2022-10-05T21:06:06.330Z,76.96
2022-10-05T21:08:38.397Z,77.33
2022-10-05T21:11:10.633Z,77.00
2022-10-05T21:13:45.816Z,77.18
2022-10-05T21:16:19.966Z,76.95
2022-10-05T21:18:52.062Z,77.75
2022-10-05T21:21:25.805Z,77.89
2022-10-05T21:23:59.350Z,77.69
2022-10-05T21:26:31.551Z,77.64
2022-10-05T21:29:07.885Z,77.57
2022-10-05T21:31:38.879Z,77.74
2022-10-05T21:34:11.177Z,77.67
2022-10-05T21:36:43.226Z,77.92
2022-10-05T21:39:15.203Z,77.74
2022-10-05T21:41:49.750Z,77.90
2022-10-05T21:44:21.342Z,78.09
2022-10-05T21:46:53.845Z,77.17
2022-10-05T21:49:26.913Z,77.10
2022-10-05T21:52:02.103Z,78.42
2022-10-05T21:54:35.166Z,78.02
2022-10-05T21:57:07.188Z,78.07
2022-10-05T21:59:39.299Z,78.94
2022-10-05T22:02:11.259Z,78.95
2022-10-05T22:04:43.412Z,79.18
2022-10-05T22:07:20.575Z,78.82
2022-10-05T22:09:53.096Z,78.93
2022-10-05T22:12:26.501Z,79.26
2022-10-05T22:15:00.329Z,79.92
2022-10-05T22:17:33.966Z,80.27
2022-10-05T22:20:06.438Z,80.33
2022-10-05T22:22:38.352Z,80.35
2022-10-05T22:25:10.421Z,79.69
2022-10-05T22:27:43.357Z,79.86
2022-10-05T22:30:15.777Z,79.60
2022-10-05T22:32:47.736Z,79.30
2022-10-05T22:35:19.648Z,79.33
2022-10-05T22:37:51.585Z,80.03
2022-10-05T22:40:23.504Z,80.32
2022-10-05T22:42:56.279Z,80.37
2022-10-05T22:45:32.404Z,80.44
2022-10-05T22:48:01.853Z,80.50
2022-10-05T22:50:34.137Z,80.28
2022-10-05T22:53:06.044Z,80.17
2022-10-05T22:55:38.050Z,80.40
2022-10-05T22:58:10.364Z,80.31
2022-10-05T23:00:59.071Z,80.39
2022-10-05T23:03:20.019Z,80.45
2022-10-05T23:06:00.377Z,80.51
2022-10-05T23:08:33.338Z,79.45
2022-10-05T23:11:09.736Z,80.60
2022-10-05T23:13:43.073Z,80.66
2022-10-05T23:16:17.907Z,80.36
2022-10-05T23:18:52.111Z,79.94
2022-10-05T23:21:25.795Z,80.61
2022-10-05T23:23:57.738Z,80.37
2022-10-05T23:26:29.754Z,79.94
2022-10-05T23:29:02.008Z,79.75
2022-10-05T23:31:34.670Z,79.30
2022-10-05T23:34:06.591Z,79.53
2022-10-05T23:36:38.595Z,80.44
2022-10-05T23:39:10.660Z,80.07
2022-10-05T23:41:44.344Z,80.45
2022-10-05T23:44:16.429Z,80.81
2022-10-05T23:46:48.374Z,80.42
2022-10-05T23:49:20.347Z,80.12
2022-10-05T23:51:52.215Z,79.50
2022-10-05T23:54:24.208Z,79.81
2022-10-05T23:56:56.292Z,79.90
2022-10-05T23:59:28.298Z,80.65
